Map

Track Data

SID SEASON NUMBER BASIN SUBBASIN NAME ISO_TIME NATURE LAT LON WMO_WIND WMO_PRES WMO_AGENCY TRACK_TYPE DIST2LAND LANDFALL IFLAG USA_AGENCY USA_ATCF_ID USA_LAT USA_LON USA_RECORD USA_STATUS USA_WIND USA_PRES USA_SSHS USA_R34_NE USA_R34_SE USA_R34_SW USA_R34_NW USA_R50_NE USA_R50_SE USA_R50_SW USA_R50_NW USA_R64_NE USA_R64_SE USA_R64_SW USA_R64_NW USA_POCI USA_ROCI USA_RMW USA_EYE TOKYO_LAT TOKYO_LON TOKYO_GRADE TOKYO_WIND TOKYO_PRES TOKYO_R50_DIR TOKYO_R50_LONG TOKYO_R50_SHORT TOKYO_R30_DIR TOKYO_R30_LONG TOKYO_R30_SHORT TOKYO_LAND CMA_LAT CMA_LON CMA_CAT CMA_WIND CMA_PRES HKO_LAT HKO_LON HKO_CAT HKO_WIND HKO_PRES NEWDELHI_LAT NEWDELHI_LON NEWDELHI_GRADE NEWDELHI_WIND NEWDELHI_PRES NEWDELHI_CI NEWDELHI_DP NEWDELHI_POCI REUNION_LAT REUNION_LON REUNION_TYPE REUNION_WIND REUNION_PRES REUNION_TNUM REUNION_CI REUNION_RMW REUNION_R34_NE REUNION_R34_SE REUNION_R34_SW REUNION_R34_NW REUNION_R50_NE REUNION_R50_SE REUNION_R50_SW REUNION_R50_NW REUNION_R64_NE REUNION_R64_SE REUNION_R64_SW REUNION_R64_NW BOM_LAT BOM_LON BOM_TYPE BOM_WIND BOM_PRES BOM_TNUM BOM_CI BOM_RMW BOM_R34_NE BOM_R34_SE BOM_R34_SW BOM_R34_NW BOM_R50_NE BOM_R50_SE BOM_R50_SW BOM_R50_NW BOM_R64_NE BOM_R64_SE BOM_R64_SW BOM_R64_NW BOM_ROCI BOM_POCI BOM_EYE BOM_POS_METHOD BOM_PRES_METHOD NADI_LAT NADI_LON NADI_CAT NADI_WIND NADI_PRES WELLINGTON_LAT WELLINGTON_LON WELLINGTON_WIND WELLINGTON_PRES DS824_LAT DS824_LON DS824_STAGE DS824_WIND DS824_PRES TD9636_LAT TD9636_LON TD9636_STAGE TD9636_WIND TD9636_PRES TD9635_LAT TD9635_LON TD9635_WIND TD9635_PRES TD9635_ROCI NEUMANN_LAT NEUMANN_LON NEUMANN_CLASS NEUMANN_WIND NEUMANN_PRES MLC_LAT MLC_LON MLC_CLASS MLC_WIND MLC_PRES USA_GUST BOM_GUST BOM_GUST_PER REUNION_GUST REUNION_GUST_PER USA_SEAHGT USA_SEARAD_NE USA_SEARAD_SE USA_SEARAD_SW USA_SEARAD_NW STORM_SPEED STORM_DIR
1947101S16138 1947 30 SP EA NOT_NAMED 1947-04-10 12:00:00 TS -16.0000 137.900 main 30 30 O________O____ jtwc_sh SH251947 -16.0000 137.900 -1 -16.0000 137.900 TC 2 112
1947101S16138 1947 30 SP EA NOT_NAMED 1947-04-10 15:00:00 TS -16.0400 138.003 main 39 33 P________P____ SH251947 -16.0400 138.003 -1 -16.0400 138.003 TC 2 117
1947101S16138 1947 30 SP EA NOT_NAMED 1947-04-10 18:00:00 TS -16.1000 138.100 main 44 44 O________O____ jtwc_sh SH251947 -16.1000 138.100 -1 -16.1000 138.100 TC 2 130
1947101S16138 1947 30 SP EA NOT_NAMED 1947-04-10 21:00:00 TS -16.1925 138.193 main 46 39 P________P____ SH251947 -16.1925 138.193 -1 -16.1925 138.193 TC 3 136
1947101S16138 1947 30 SP EA NOT_NAMED 1947-04-11 00:00:00 TS -16.3000 138.300 main 46 44 O________O____ jtwc_sh SH251947 -16.3000 138.300 -1 -16.3000 138.300 TC 3 130
1947101S16138 1947 30 SP EA NOT_NAMED 1947-04-11 03:00:00 TS -16.3925 138.443 main 44 33 P________P____ SH251947 -16.3925 138.443 -1 -16.3925 138.443 TC 4 125
1947101S16138 1947 30 SP EA NOT_NAMED 1947-04-11 06:00:00 TS -16.5000 138.600 main 33 24 O________O____ jtwc_sh SH251947 -16.5000 138.600 -1 -16.5000 138.600 TC 4 131
1947101S16138 1947 30 SP EA NOT_NAMED 1947-04-11 09:00:00 TS -16.6500 138.750 main 30 11 P________P____ SH251947 -16.6500 138.750 -1 -16.6500 138.750 TC 4 136
1947101S16138 1947 30 SP EA NOT_NAMED 1947-04-11 12:00:00 TS -16.8000 138.900 main 11 0 O________O____ jtwc_sh SH251947 -16.8000 138.900 -1 -16.8000 138.900 TC 4 132
1947101S16138 1947 30 SP EA NOT_NAMED 1947-04-11 15:00:00 TS -16.8999 139.035 main 0 0 P________P____ SH251947 -16.8999 139.035 -1 -16.8999 139.035 TC 4 125
1947101S16138 1947 30 SP EA NOT_NAMED 1947-04-11 18:00:00 TS -17.0000 139.200 main 0 0 O________O____ jtwc_sh SH251947 -17.0000 139.200 -1 -17.0000 139.200 TC 4 120
1947101S16138 1947 30 SP EA NOT_NAMED 1947-04-11 21:00:00 TS -17.1200 139.428 main 21 15 P________P____ SH251947 -17.1200 139.428 -1 -17.1200 139.428 TC 6 122
1947101S16138 1947 30 SP EA NOT_NAMED 1947-04-12 00:00:00 TS -17.3000 139.700 main 24 11 O________O____ jtwc_sh SH251947 -17.3000 139.700 -1 -17.3000 139.700 TC 7 130
1947101S16138 1947 30 SP EA NOT_NAMED 1947-04-12 03:00:00 TS -17.5700 139.985 main 11 0 P________P____ SH251947 -17.5700 139.985 -1 -17.5700 139.985 TC 8 136
1947101S16138 1947 30 SP EA NOT_NAMED 1947-04-12 06:00:00 TS -17.9000 140.300 main 0 0 O________O____ jtwc_sh SH251947 -17.9000 140.300 -1 -17.9000 140.300 TC 9 138
1947101S16138 1947 30 SP EA NOT_NAMED 1947-04-12 09:00:00 TS -18.2575 140.642 main 0 0 P________P____ SH251947 -18.2575 140.642 -1 -18.2575 140.642 TC 10 136
1947101S16138 1947 30 SP EA NOT_NAMED 1947-04-12 12:00:00 TS -18.6000 141.000 main 0 0 O________O____ jtwc_sh SH251947 -18.6000 141.000 -1 -18.6000 141.000 TC 9 133
1947101S16138 1947 30 SP EA NOT_NAMED 1947-04-12 15:00:00 TS -18.8799 141.350 main 0 0 P________P____ SH251947 -18.8799 141.350 -1 -18.8799 141.350 TC 8 127
1947101S16138 1947 30 SP EA NOT_NAMED 1947-04-12 18:00:00 TS -19.1000 141.700 main 0 0 O________O____ jtwc_sh SH251947 -19.1000 141.700 -1 -19.1000 141.700 TC 8 120
1947101S16138 1947 30 SP EA NOT_NAMED 1947-04-12 21:00:00 TS -19.2651 142.050 main 0 0 P________P____ SH251947 -19.2651 142.050 -1 -19.2651 142.050 TC 7 114
1947101S16138 1947 30 SP EA NOT_NAMED 1947-04-13 00:00:00 TS -19.4000 142.400 main 0 O________O____ jtwc_sh SH251947 -19.4000 142.400 -1 -19.4000 142.400 TC 7 112

Digital Typhoon Data and Search

About IBTrACS Database

This database is a web-friendly format of International Best Track Archive for Climate Stewardship (IBTrACS), a global best track data archive curated by NOAA dating back to 1842.

Updated: 2021-12-01